Trophy Club, TX

7:52 PM CDT on July 01, 2015 (GMT -0500)
Courts | | Change Station
CLOSE
Current Station
Personal Weather Station
Location: Trophy Club, TX
Elevation: 627 ft
Nearby Weather Stations

Elev 627 ft 33.00 °N, 97.20 °W | Updated 12 minutes ago

Partly Cloudy
Partly Cloudy
92.9 °F
Feels Like 102 °F
N
0.0
Wind Variable Wind from North
Gusts 0.0 mph

Today
High -- | Low -- °F
--% Chance of Precip.
Yesterday
High -- | Low -- °F
Precip. -- in
6:23 AM 8:41 PM
Full, 100% visible
Pressure 29.87 in
Visibility 10.0 miles
Clouds Few 6500 ft
Scattered Clouds 30000 ft
Heat Index 102 °F
Dew Point 73 °F
Humidity 52%
Rainfall 0.00 in
Snow Depth Not available.
UV 1 out of 12
Pollen 5.20 out of 12
Air Quality Not available.
Flu Activity Not available.
METAR KAFW 012353Z 19009G21KT 10SM FEW065 SCT300 33/20 A2992 RMK AO2 SLP115 T03280200 10339 20311 56011

More Conditions Fewer Conditions

Pressure 29.87 in
Visibility 10.0 miles
Clouds Few 6500 ft
Scattered Clouds 30000 ft
Heat Index 102 °F
Dew Point 73 °F
Humidity 52%
Rainfall 0.00 in
Snow Depth Not available.
UV 1 out of 12
Pollen 5.20 out of 12
Air Quality Not available.
Flu Activity Not available.
METAR KAFW 012353Z 19009G21KT 10SM FEW065 SCT300 33/20 A2992 RMK AO2 SLP115 T03280200 10339 20311 56011

More Conditions Fewer Conditions

10-Day Weather Forecast

×

Almanac

Astronomy

Jul. 01, 2015 Rise Set
Actual Time
Civil Twilight
Nautical Twilight
Astronomical Twilight
Moon
Length of Visible Light
Length of Day
Tomorrow will be .
, % of the Moon is Illuminated

Today's Extremes

State Highs State Lows

Community

WunderPhotos

Upload Photos

1,834,355 photos uploaded!

WunderBlogs® & News

Nearby

Air Quality

  Air Quality AQ Index Pollutant
Not available.

Snow Depth

Station Depth Elevation

Earthquake Activity

City Distance Mag. Time & Date
Minimum magnitude displayed is 2.5.

Coastal Water Temperatures

Place Temperature

Stations

Nearby Weather Stations

Station Location Temp. Windchill Dew Point Humidity Wind Precip. Elev Updated Type